createdAt,value
2022-12-18T00:01:20.381Z,100.00
2022-12-18T00:03:47.178Z,100.00
2022-12-18T00:06:14.642Z,100.00
2022-12-18T00:08:44.240Z,100.00
2022-12-18T00:11:19.030Z,100.00
2022-12-18T00:13:45.493Z,100.00
2022-12-18T00:16:13.794Z,100.00
2022-12-18T00:18:40.959Z,100.00
2022-12-18T00:21:09.061Z,100.00
2022-12-18T00:23:36.689Z,100.00
2022-12-18T00:26:05.473Z,100.00
2022-12-18T00:28:31.902Z,100.00
2022-12-18T00:31:06.015Z,100.00
2022-12-18T00:33:32.681Z,100.00
2022-12-18T00:36:11.630Z,100.00
2022-12-18T00:38:38.400Z,100.00
2022-12-18T00:41:05.093Z,100.00
2022-12-18T00:43:31.517Z,100.00
2022-12-18T00:45:57.983Z,100.00
2022-12-18T00:48:24.501Z,100.00
2022-12-18T00:50:51.026Z,100.00
2022-12-18T00:53:17.676Z,100.00
2022-12-18T00:55:44.399Z,100.00
2022-12-18T00:58:11.449Z,100.00
2022-12-18T01:00:38.914Z,100.00
2022-12-18T01:03:05.621Z,100.00
2022-12-18T01:05:32.248Z,100.00
2022-12-18T01:07:58.707Z,100.00
2022-12-18T01:10:25.538Z,100.00
2022-12-18T01:12:52.011Z,100.00
2022-12-18T01:15:18.559Z,100.00
2022-12-18T01:17:45.032Z,100.00
2022-12-18T01:20:12.466Z,100.00
2022-12-18T01:22:39.199Z,100.00
2022-12-18T01:25:06.296Z,100.00
2022-12-18T01:27:34.031Z,100.00
2022-12-18T01:30:00.855Z,100.00
2022-12-18T01:32:27.334Z,100.00
2022-12-18T01:34:53.795Z,100.00
2022-12-18T01:37:20.644Z,100.00
2022-12-18T01:39:47.151Z,100.00
2022-12-18T01:42:14.610Z,100.00
2022-12-18T01:45:04.425Z,100.00
2022-12-18T01:47:32.406Z,100.00
2022-12-18T01:50:00.596Z,100.00
2022-12-18T01:52:31.021Z,100.00
2022-12-18T01:54:57.622Z,100.00
2022-12-18T01:57:24.461Z,100.00
2022-12-18T01:59:53.793Z,100.00
2022-12-18T02:02:21.623Z,100.00
2022-12-18T02:04:49.716Z,100.00
2022-12-18T02:07:33.901Z,100.00
2022-12-18T02:10:20.031Z,100.00
2022-12-18T02:12:51.829Z,100.00
2022-12-18T02:15:24.737Z,100.00
2022-12-18T02:17:55.632Z,100.00
2022-12-18T02:21:01.239Z,100.00
2022-12-18T02:23:55.707Z,100.00
2022-12-18T02:26:28.781Z,100.00
2022-12-18T02:29:21.533Z,100.00
2022-12-18T02:31:53.409Z,100.00
2022-12-18T02:34:19.889Z,100.00
2022-12-18T02:36:46.348Z,100.00
2022-12-18T02:39:13.045Z,100.00
2022-12-18T02:41:39.689Z,100.00
2022-12-18T02:44:13.511Z,100.00
2022-12-18T02:46:53.315Z,100.00
2022-12-18T02:49:41.742Z,100.00
2022-12-18T02:52:29.069Z,100.00
2022-12-18T02:55:10.257Z,100.00
2022-12-18T02:58:01.844Z,100.00
2022-12-18T03:00:53.012Z,100.00
2022-12-18T03:03:35.675Z,100.00
2022-12-18T03:06:33.546Z,100.00
2022-12-18T03:09:02.134Z,100.00
2022-12-18T03:11:49.441Z,100.00
2022-12-18T03:14:16.650Z,100.00
2022-12-18T03:16:43.293Z,100.00
2022-12-18T03:19:12.648Z,100.00
2022-12-18T03:21:46.672Z,100.00
2022-12-18T03:24:13.490Z,100.00
2022-12-18T03:26:43.865Z,100.00
2022-12-18T03:29:14.042Z,100.00
2022-12-18T03:31:41.330Z,100.00
2022-12-18T03:34:14.353Z,100.00
2022-12-18T03:36:40.960Z,100.00
2022-12-18T03:39:07.418Z,100.00
2022-12-18T03:41:38.124Z,100.00
2022-12-18T03:44:16.931Z,100.00
2022-12-18T03:46:49.824Z,100.00
2022-12-18T03:49:22.587Z,100.00
2022-12-18T03:52:08.248Z,100.00
2022-12-18T03:54:34.755Z,100.00
2022-12-18T03:57:07.746Z,100.00
2022-12-18T03:59:34.206Z,100.00
2022-12-18T04:02:00.912Z,100.00
2022-12-18T04:04:27.457Z,100.00
2022-12-18T04:06:54.189Z,100.00
2022-12-18T04:09:20.783Z,100.00
2022-12-18T04:11:47.944Z,100.00
2022-12-18T04:14:17.673Z,100.00
2022-12-18T04:16:44.961Z,100.00
2022-12-18T04:19:11.901Z,100.00
2022-12-18T04:21:38.362Z,100.00
2022-12-18T04:24:04.988Z,100.00
2022-12-18T04:26:31.440Z,100.00
2022-12-18T04:28:57.885Z,100.00
2022-12-18T04:31:24.998Z,100.00
2022-12-18T04:33:51.577Z,100.00
2022-12-18T04:36:18.062Z,100.00
2022-12-18T04:38:44.882Z,100.00
2022-12-18T04:41:11.346Z,100.00
2022-12-18T04:43:38.684Z,100.00
2022-12-18T04:46:08.653Z,100.00
2022-12-18T04:48:35.529Z,100.00
2022-12-18T04:51:02.326Z,100.00
2022-12-18T04:53:28.822Z,100.00
2022-12-18T04:56:08.868Z,100.00
2022-12-18T04:58:35.926Z,100.00
2022-12-18T05:01:02.501Z,100.00
2022-12-18T05:03:29.025Z,100.00
2022-12-18T05:05:55.586Z,100.00
2022-12-18T05:08:22.099Z,100.00
2022-12-18T05:10:48.593Z,100.00
2022-12-18T05:13:15.405Z,100.00
2022-12-18T05:15:42.765Z,100.00
2022-12-18T05:18:09.512Z,100.00
2022-12-18T05:20:35.966Z,100.00
2022-12-18T05:23:02.439Z,100.00
2022-12-18T05:25:29.259Z,100.00
2022-12-18T05:27:56.089Z,100.00
2022-12-18T05:30:23.592Z,100.00
2022-12-18T05:32:50.039Z,100.00
2022-12-18T05:35:17.046Z,100.00
2022-12-18T05:37:43.707Z,100.00
2022-12-18T05:40:11.258Z,100.00
2022-12-18T05:42:37.750Z,100.00
2022-12-18T05:45:05.037Z,100.00
2022-12-18T05:47:31.794Z,100.00
2022-12-18T05:49:58.579Z,100.00
2022-12-18T05:52:25.429Z,100.00
2022-12-18T05:54:51.913Z,100.00
2022-12-18T05:57:18.573Z,100.00
2022-12-18T05:59:45.029Z,100.00
2022-12-18T06:02:11.617Z,100.00
2022-12-18T06:04:38.210Z,100.00
2022-12-18T06:07:05.005Z,100.00
2022-12-18T06:09:31.470Z,100.00
2022-12-18T06:11:57.930Z,100.00
2022-12-18T06:14:24.401Z,100.00
2022-12-18T06:16:52.617Z,100.00
2022-12-18T06:19:19.087Z,100.00
2022-12-18T06:21:45.541Z,100.00
2022-12-18T06:24:12.032Z,100.00
2022-12-18T06:26:39.856Z,100.00
2022-12-18T06:29:06.490Z,100.00
2022-12-18T06:31:33.464Z,100.00
2022-12-18T06:34:00.590Z,100.00
2022-12-18T06:36:30.705Z,100.00
2022-12-18T06:38:57.209Z,100.00
2022-12-18T06:41:23.737Z,100.00
2022-12-18T06:43:50.232Z,100.00
2022-12-18T06:46:16.835Z,100.00
2022-12-18T06:48:43.328Z,100.00
2022-12-18T06:51:09.769Z,100.00
2022-12-18T06:53:36.361Z,100.00
2022-12-18T06:56:09.436Z,100.00
2022-12-18T06:58:37.158Z,100.00
2022-12-18T07:01:04.823Z,100.00
2022-12-18T07:03:31.514Z,100.00
2022-12-18T07:05:57.985Z,100.00
2022-12-18T07:08:24.484Z,100.00
2022-12-18T07:10:55.964Z,100.00
2022-12-18T07:13:22.793Z,100.00
2022-12-18T07:15:49.298Z,100.00
2022-12-18T07:18:15.777Z,100.00
2022-12-18T07:20:42.248Z,100.00
2022-12-18T07:23:08.719Z,100.00
2022-12-18T07:25:38.074Z,100.00
2022-12-18T07:28:04.820Z,100.00
2022-12-18T07:30:31.285Z,100.00
2022-12-18T07:32:58.050Z,100.00
2022-12-18T07:35:25.383Z,100.00
2022-12-18T07:37:52.086Z,100.00
2022-12-18T07:40:18.864Z,100.00
2022-12-18T07:42:45.579Z,100.00
2022-12-18T07:45:12.187Z,100.00
2022-12-18T07:47:38.733Z,100.00
2022-12-18T07:50:05.691Z,100.00
2022-12-18T07:52:32.155Z,100.00
2022-12-18T07:54:59.614Z,100.00
2022-12-18T08:00:13.470Z,100.00
2022-12-18T08:02:40.251Z,100.00
2022-12-18T08:05:07.102Z,100.00
2022-12-18T08:07:33.616Z,100.00
2022-12-18T08:10:00.127Z,100.00
2022-12-18T08:12:26.858Z,100.00
2022-12-18T08:14:53.326Z,100.00
2022-12-18T08:17:20.630Z,100.00
2022-12-18T08:19:47.126Z,100.00
2022-12-18T08:22:13.601Z,100.00
2022-12-18T08:24:40.081Z,100.00
2022-12-18T08:27:28.349Z,100.00
2022-12-18T08:29:52.996Z,100.00
2022-12-18T08:32:19.622Z,100.00
2022-12-18T08:34:46.126Z,100.00
2022-12-18T08:37:12.586Z,100.00
2022-12-18T08:39:39.061Z,100.00
2022-12-18T08:42:24.193Z,100.00
2022-12-18T08:44:50.661Z,100.00
2022-12-18T08:47:17.112Z,100.00
2022-12-18T08:49:43.606Z,100.00
2022-12-18T08:52:10.085Z,100.00
2022-12-18T08:54:36.560Z,100.00
2022-12-18T08:57:03.140Z,100.00
2022-12-18T08:59:29.608Z,100.00
2022-12-18T09:01:59.081Z,100.00
2022-12-18T09:04:25.632Z,100.00
2022-12-18T09:06:52.134Z,100.00
2022-12-18T09:09:18.671Z,99.99
2022-12-18T09:11:45.178Z,100.00
2022-12-18T09:14:11.688Z,100.00
2022-12-18T09:16:38.419Z,99.55
2022-12-18T09:19:05.177Z,99.75
2022-12-18T09:21:34.777Z,100.00
2022-12-18T09:24:03.711Z,100.00
2022-12-18T09:26:31.384Z,98.94
2022-12-18T09:28:58.016Z,99.10
2022-12-18T09:31:25.066Z,98.46
2022-12-18T09:33:51.959Z,96.46
2022-12-18T09:36:18.903Z,94.61
2022-12-18T09:38:45.461Z,93.34
2022-12-18T09:41:24.089Z,92.88
2022-12-18T09:43:52.369Z,91.33
2022-12-18T09:46:21.808Z,90.79
2022-12-18T09:48:50.291Z,90.07
2022-12-18T09:51:24.356Z,89.34
2022-12-18T09:53:56.762Z,88.83
2022-12-18T09:56:24.036Z,88.62
2022-12-18T09:58:59.576Z,87.77
2022-12-18T10:01:30.358Z,87.99
2022-12-18T10:04:02.091Z,88.60
2022-12-18T10:06:37.694Z,88.90
2022-12-18T10:09:16.480Z,89.56
2022-12-18T10:12:10.690Z,89.39
2022-12-18T10:14:52.746Z,88.18
2022-12-18T10:17:46.985Z,87.84
2022-12-18T10:20:31.169Z,88.04
2022-12-18T10:23:12.864Z,87.40
2022-12-18T10:25:56.970Z,87.75
2022-12-18T10:28:23.616Z,86.48
2022-12-18T10:30:50.426Z,86.93
2022-12-18T10:33:21.776Z,86.41
2022-12-18T10:35:49.203Z,85.35
2022-12-18T10:38:15.512Z,84.78
2022-12-18T10:40:52.484Z,85.35
2022-12-18T10:43:27.072Z,84.01
2022-12-18T10:46:01.790Z,83.53
2022-12-18T10:48:28.417Z,83.22
2022-12-18T10:51:10.949Z,82.76
2022-12-18T10:53:40.555Z,83.20
2022-12-18T10:56:07.869Z,82.58
2022-12-18T10:58:35.923Z,81.22
2022-12-18T11:01:23.593Z,81.34
2022-12-18T11:04:02.113Z,80.29
2022-12-18T11:06:29.284Z,79.85
2022-12-18T11:08:59.789Z,78.89
2022-12-18T11:11:26.296Z,78.66
2022-12-18T11:14:20.455Z,79.45
2022-12-18T11:17:23.906Z,78.85
2022-12-18T11:19:35.019Z,77.84
2022-12-18T11:22:02.360Z,78.22
2022-12-18T11:24:33.678Z,79.03
2022-12-18T11:27:07.006Z,79.15
2022-12-18T11:29:41.952Z,77.98
2022-12-18T11:32:15.684Z,78.76
2022-12-18T11:34:47.476Z,78.12
2022-12-18T11:37:14.450Z,78.57
2022-12-18T11:39:50.347Z,77.62
2022-12-18T11:42:22.894Z,78.45
2022-12-18T11:44:54.567Z,78.17
2022-12-18T11:47:30.541Z,76.96
2022-12-18T11:49:57.875Z,77.06
2022-12-18T11:52:58.191Z,77.70
2022-12-18T11:55:26.715Z,77.66
2022-12-18T11:58:08.790Z,77.58
2022-12-18T12:00:37.374Z,77.96
2022-12-18T12:03:36.616Z,77.47
2022-12-18T12:06:15.857Z,78.20
2022-12-18T12:09:21.107Z,77.91
2022-12-18T12:12:22.945Z,77.13
2022-12-18T12:15:00.166Z,77.67
2022-12-18T12:17:48.657Z,77.52
2022-12-18T12:20:15.072Z,78.14
2022-12-18T12:23:13.038Z,77.85
2022-12-18T12:29:30.332Z,76.95
2022-12-18T12:32:15.160Z,76.85
2022-12-18T12:35:09.436Z,76.79
2022-12-18T12:37:55.129Z,76.97
2022-12-18T12:40:50.148Z,77.62
2022-12-18T12:43:49.579Z,77.68
2022-12-18T12:46:18.328Z,78.09
2022-12-18T12:48:48.191Z,77.57
2022-12-18T12:51:26.758Z,77.56
2022-12-18T12:53:53.465Z,77.06
2022-12-18T12:56:20.840Z,76.63
2022-12-18T12:59:02.399Z,76.93
2022-12-18T13:02:01.587Z,76.78
2022-12-18T13:04:48.133Z,75.60
2022-12-18T13:07:30.439Z,75.06
2022-12-18T13:10:17.748Z,75.01
2022-12-18T13:13:11.180Z,74.67
2022-12-18T13:15:41.910Z,75.11
2022-12-18T13:18:14.622Z,75.46
2022-12-18T13:21:24.898Z,74.75
2022-12-18T13:23:51.423Z,75.06
2022-12-18T13:26:21.922Z,74.82
2022-12-18T13:28:54.524Z,75.40
2022-12-18T13:31:39.662Z,75.27
2022-12-18T13:34:38.593Z,75.08
2022-12-18T13:37:44.618Z,75.23
2022-12-18T13:40:48.290Z,74.44
2022-12-18T13:43:22.630Z,74.66
2022-12-18T13:45:50.963Z,75.62
2022-12-18T13:48:19.291Z,75.32
2022-12-18T13:50:50.502Z,75.99
2022-12-18T13:53:26.955Z,76.23
2022-12-18T13:55:54.052Z,75.86
2022-12-18T13:58:20.565Z,75.59
2022-12-18T14:00:47.144Z,75.33
2022-12-18T14:03:22.432Z,75.24
2022-12-18T14:05:54.542Z,74.76
2022-12-18T14:08:21.201Z,74.78
2022-12-18T14:10:50.043Z,74.55
2022-12-18T14:13:24.173Z,74.59
2022-12-18T14:15:50.667Z,74.92
2022-12-18T14:18:20.080Z,74.95
2022-12-18T14:20:52.139Z,75.41
2022-12-18T14:23:42.461Z,75.88
2022-12-18T14:26:30.202Z,75.83
2022-12-18T14:28:57.491Z,75.72
2022-12-18T14:31:28.407Z,75.13
2022-12-18T14:33:55.001Z,75.16
2022-12-18T14:36:23.349Z,74.83
2022-12-18T14:38:56.876Z,75.41
2022-12-18T14:41:23.452Z,75.01
2022-12-18T14:43:51.389Z,74.74
2022-12-18T14:46:27.968Z,74.62
2022-12-18T14:48:54.674Z,74.00
2022-12-18T14:51:22.537Z,73.00
2022-12-18T14:53:55.671Z,73.74
2022-12-18T14:56:22.507Z,73.90
2022-12-18T14:58:54.533Z,73.99
2022-12-18T15:01:23.775Z,73.73
2022-12-18T15:03:50.449Z,72.74
2022-12-18T15:06:26.378Z,72.10
2022-12-18T15:08:52.916Z,72.15
2022-12-18T15:11:36.855Z,72.72
2022-12-18T15:14:23.031Z,72.18
2022-12-18T15:16:55.706Z,72.17
2022-12-18T15:19:35.551Z,72.59
2022-12-18T15:22:06.365Z,72.63
2022-12-18T15:24:33.386Z,72.94
2022-12-18T15:27:00.310Z,73.40
2022-12-18T15:29:27.111Z,73.35
2022-12-18T15:32:04.117Z,74.15
2022-12-18T15:34:30.677Z,73.91
2022-12-18T15:36:57.145Z,74.08
2022-12-18T15:39:23.743Z,73.97
2022-12-18T15:42:08.874Z,73.83
2022-12-18T15:44:35.651Z,75.22
2022-12-18T15:47:02.363Z,75.00
2022-12-18T15:49:28.906Z,75.38
2022-12-18T15:51:57.599Z,74.67
2022-12-18T15:54:44.127Z,74.52
2022-12-18T15:57:26.609Z,75.17
2022-12-18T15:59:55.017Z,75.19
2022-12-18T16:02:24.046Z,76.10
2022-12-18T16:04:54.913Z,76.32
2022-12-18T16:07:24.924Z,76.11
2022-12-18T16:09:52.134Z,75.55
2022-12-18T16:12:20.689Z,75.77
2022-12-18T16:14:47.219Z,74.63
2022-12-18T16:17:14.318Z,74.62
2022-12-18T16:19:43.825Z,75.61
2022-12-18T16:22:26.476Z,76.08
2022-12-18T16:24:53.446Z,75.75
2022-12-18T16:27:20.172Z,75.87
2022-12-18T16:29:46.702Z,75.41
2022-12-18T16:32:15.135Z,76.02
2022-12-18T16:34:42.888Z,75.49
2022-12-18T16:37:09.504Z,75.55
2022-12-18T16:39:36.351Z,76.01
2022-12-18T16:42:09.846Z,76.80
2022-12-18T16:44:36.406Z,76.42
2022-12-18T16:47:04.310Z,76.74
2022-12-18T16:49:31.505Z,76.82
2022-12-18T16:51:58.023Z,77.37
2022-12-18T16:54:24.951Z,77.55
2022-12-18T16:56:51.902Z,77.01
2022-12-18T16:59:18.462Z,77.60
2022-12-18T17:01:44.988Z,76.81
2022-12-18T17:04:11.836Z,76.92
2022-12-18T17:06:40.844Z,76.34
2022-12-18T17:09:09.213Z,76.43
2022-12-18T17:11:35.775Z,77.13
2022-12-18T17:14:14.078Z,76.91
2022-12-18T17:16:40.579Z,76.08
2022-12-18T17:19:10.990Z,76.93
2022-12-18T17:21:41.756Z,75.67
2022-12-18T17:24:08.397Z,76.32
2022-12-18T17:26:34.858Z,76.48
2022-12-18T17:29:01.360Z,76.23
2022-12-18T17:31:29.328Z,76.47
2022-12-18T17:33:55.996Z,76.52
2022-12-18T17:36:22.921Z,76.31
2022-12-18T17:38:56.358Z,76.56
2022-12-18T17:41:22.964Z,75.84
2022-12-18T17:43:59.587Z,75.31
2022-12-18T17:46:26.394Z,74.92
2022-12-18T17:48:55.038Z,75.76
2022-12-18T17:51:21.547Z,75.61
2022-12-18T17:53:48.105Z,76.15
2022-12-18T17:56:15.636Z,76.60
2022-12-18T17:58:42.198Z,76.32
2022-12-18T18:01:14.389Z,76.39
2022-12-18T18:03:43.164Z,76.28
2022-12-18T18:06:09.986Z,77.15
2022-12-18T18:08:36.543Z,76.97
2022-12-18T18:11:25.776Z,77.49
2022-12-18T18:14:01.298Z,76.87
2022-12-18T18:16:35.935Z,77.73
2022-12-18T18:19:05.566Z,77.73
2022-12-18T18:21:32.170Z,77.60
2022-12-18T18:24:03.131Z,77.69
2022-12-18T18:26:31.627Z,78.35
2022-12-18T18:29:01.971Z,78.01
2022-12-18T18:31:30.879Z,77.83
2022-12-18T18:33:57.405Z,78.28
2022-12-18T18:36:24.239Z,78.70
2022-12-18T18:38:51.171Z,79.53
2022-12-18T18:41:17.968Z,78.68
2022-12-18T18:43:44.801Z,79.48
2022-12-18T18:46:13.165Z,78.84
2022-12-18T18:48:40.225Z,79.30
2022-12-18T18:51:14.632Z,79.13
2022-12-18T18:53:47.774Z,79.42
2022-12-18T18:56:45.591Z,79.54
2022-12-18T18:59:03.638Z,79.09
2022-12-18T19:01:30.234Z,80.57
2022-12-18T19:03:56.814Z,80.13
2022-12-18T19:06:24.810Z,80.76
2022-12-18T19:08:52.669Z,80.70
2022-12-18T19:11:38.485Z,81.02
2022-12-18T19:14:06.148Z,81.52
2022-12-18T19:16:33.001Z,81.33
2022-12-18T19:19:02.194Z,81.68
2022-12-18T19:21:33.410Z,81.53
2022-12-18T19:24:01.582Z,81.29
2022-12-18T19:26:28.691Z,81.86
2022-12-18T19:29:00.894Z,82.14
2022-12-18T19:31:33.365Z,81.93
2022-12-18T19:34:01.968Z,81.16
2022-12-18T19:36:29.214Z,81.44
2022-12-18T19:38:57.758Z,80.77
2022-12-18T19:41:24.338Z,80.53
2022-12-18T19:43:52.210Z,80.88
2022-12-18T19:46:20.930Z,81.10
2022-12-18T19:48:47.589Z,81.06
2022-12-18T19:51:18.738Z,81.23
2022-12-18T19:53:45.277Z,81.68
2022-12-18T19:56:13.769Z,82.14
2022-12-18T19:58:40.526Z,82.89
2022-12-18T20:01:07.235Z,82.98
2022-12-18T20:03:35.592Z,83.00
2022-12-18T20:06:11.915Z,83.30
2022-12-18T20:08:38.774Z,82.79
2022-12-18T20:11:05.408Z,83.47
2022-12-18T20:13:31.876Z,84.26
2022-12-18T20:15:58.942Z,84.57
2022-12-18T20:18:25.965Z,85.37
2022-12-18T20:20:53.088Z,86.12
2022-12-18T20:23:22.698Z,86.82
2022-12-18T20:25:49.412Z,87.54
2022-12-18T20:28:15.880Z,86.88
2022-12-18T20:30:42.454Z,86.89
2022-12-18T20:33:09.096Z,87.49
2022-12-18T20:35:35.567Z,87.36
2022-12-18T20:38:02.627Z,87.97
2022-12-18T20:40:29.855Z,88.69
2022-12-18T20:42:56.314Z,88.80
2022-12-18T20:45:22.822Z,89.73
2022-12-18T20:47:49.315Z,90.12
2022-12-18T20:50:15.801Z,90.69
2022-12-18T20:52:42.259Z,90.41
2022-12-18T20:55:09.128Z,90.50
2022-12-18T20:57:35.591Z,91.51
2022-12-18T21:00:05.891Z,91.54
2022-12-18T21:02:32.576Z,93.05
2022-12-18T21:04:59.371Z,93.18
2022-12-18T21:07:27.357Z,94.00
2022-12-18T21:09:54.246Z,94.45
2022-12-18T21:12:45.240Z,94.54
2022-12-18T21:15:17.477Z,94.78
2022-12-18T21:17:45.002Z,95.72
2022-12-18T21:20:13.327Z,96.22
2022-12-18T21:22:44.408Z,96.65
2022-12-18T21:25:10.889Z,97.33
2022-12-18T21:27:37.353Z,97.64
2022-12-18T21:30:04.051Z,97.67
2022-12-18T21:32:32.230Z,98.38
2022-12-18T21:35:00.126Z,98.64
2022-12-18T21:37:26.658Z,99.14
2022-12-18T21:39:53.162Z,99.78
2022-12-18T21:42:38.466Z,100.00
2022-12-18T21:45:05.173Z,100.00
2022-12-18T21:47:31.684Z,100.00
2022-12-18T21:49:58.196Z,100.00
2022-12-18T21:52:30.904Z,100.00
2022-12-18T21:55:06.228Z,100.00
2022-12-18T21:57:35.428Z,100.00
2022-12-18T22:00:02.876Z,100.00
2022-12-18T22:02:29.663Z,100.00
2022-12-18T22:04:56.372Z,100.00
2022-12-18T22:07:23.049Z,100.00
2022-12-18T22:09:49.632Z,100.00
2022-12-18T22:12:35.196Z,100.00
2022-12-18T22:15:03.581Z,100.00
2022-12-18T22:17:30.068Z,100.00
2022-12-18T22:19:57.100Z,100.00
2022-12-18T22:22:23.575Z,100.00
2022-12-18T22:24:50.039Z,100.00
2022-12-18T22:27:16.507Z,100.00
2022-12-18T22:30:01.858Z,100.00
2022-12-18T22:32:31.384Z,100.00
2022-12-18T22:35:07.976Z,100.00
2022-12-18T22:37:36.120Z,100.00
2022-12-18T22:40:05.106Z,100.00
2022-12-18T22:42:32.487Z,100.00
2022-12-18T22:45:00.280Z,100.00
2022-12-18T22:47:30.173Z,100.00
2022-12-18T22:49:57.506Z,100.00
2022-12-18T22:52:24.781Z,100.00
2022-12-18T22:54:53.324Z,100.00
2022-12-18T22:57:21.516Z,100.00
2022-12-18T22:59:48.067Z,100.00
2022-12-18T23:02:14.896Z,100.00
2022-12-18T23:04:41.448Z,100.00
2022-12-18T23:07:07.960Z,100.00
2022-12-18T23:09:34.479Z,100.00
2022-12-18T23:12:01.115Z,100.00
2022-12-18T23:14:28.231Z,100.00
2022-12-18T23:16:54.677Z,100.00
2022-12-18T23:19:21.461Z,100.00
2022-12-18T23:21:50.192Z,100.00
2022-12-18T23:24:16.651Z,100.00
2022-12-18T23:26:43.165Z,100.00
2022-12-18T23:29:09.664Z,100.00
2022-12-18T23:31:37.591Z,100.00
2022-12-18T23:34:04.427Z,100.00
2022-12-18T23:36:30.975Z,100.00
2022-12-18T23:39:04.190Z,100.00
2022-12-18T23:41:31.409Z,100.00
2022-12-18T23:43:58.458Z,100.00
2022-12-18T23:46:30.017Z,100.00
2022-12-18T23:48:58.493Z,100.00
2022-12-18T23:51:25.701Z,100.00
2022-12-18T23:53:53.090Z,100.00
2022-12-18T23:56:19.630Z,100.00
2022-12-18T23:58:46.422Z,100.00
